Tensaw — WDF2525 — position and weather

sailwx.info

Track history (hours):
 
Tides and Currents Weather Stations Pressure Air Temp Water Temp Dewpoint Dewpoint Depression Visibility Wind Speed Wind Dir Waves Ship Positions

Tensaw

Owner: Enterprise Marine Services, LLC, San Antonio, TX. More information available from US FCC via Universal Licensing System and Coast Guard Vessel Documentation Center.

Last reported at 2018-Jul-13 04:19 UTC. Time now 2018-Jul-20 06:22 UTC.
Position N 29°35' W 090°37'.

Length 20 m; draft 2.7 m.

Type: . MMSI: 367127050.

Date/timePositionNaut miles runAvg speedWind from/ knotsBaromVisibWave heightAir tempDewpointWater temp
2018-Jul-13 04:19N 29°35' W 090°37'2 5.7
2018-Jul-13 03:57N 29°36' W 090°39'1 1.9
2018-Jul-13 03:30N 29°36' W 090°40'0 0.6
2018-Jul-13 02:57N 29°36' W 090°40'0 0.0
2018-Jul-13 02:25N 29°36' W 090°40'0 0.0
2018-Jul-13 02:00N 29°36' W 090°40'0 0.7
2018-Jul-13 01:30N 29°36' W 090°40'1 1.1
2018-Jul-13 01:00N 29°36' W 090°41'2 3.2
2018-Jul-13 00:30N 29°36' W 090°43'2 3.4
2018-Jul-13 00:00N 29°34' W 090°43'0 0.2
2018-Jul-12 23:30N 29°34' W 090°43'2 4.7
2018-Jul-12 23:00N 29°33' W 090°45'3 5.7
2018-Jul-12 22:30N 29°32' W 090°48'  
2018-Jul-09 21:55N 29°36' W 090°58'2 4.9
2018-Jul-09 21:26N 29°34' W 090°57'3 4.8
2018-Jul-09 20:52N 29°33' W 090°54'2 3.6
2018-Jul-09 20:25N 29°32' W 090°52'2 5.3
2018-Jul-09 20:00N 29°32' W 090°50'3 5.3
2018-Jul-09 19:30N 29°32' W 090°47'2 4.8
2018-Jul-09 19:00N 29°34' W 090°45'2 4.1
2018-Jul-09 18:30N 29°35' W 090°43'2 3.8
2018-Jul-09 18:01N 29°37' W 090°42'1 2.1
2018-Jul-09 17:30N 29°36' W 090°41'2 3.3
2018-Jul-09 17:00N 29°36' W 090°39'2 4.8
2018-Jul-09 16:30N 29°35' W 090°36'2 4.7
2018-Jul-09 16:00N 29°34' W 090°34'3 5.1
2018-Jul-09 15:28N 29°34' W 090°31'  
Track history (hours):
 
Tides and Currents Weather Stations Pressure Air Temp Water Temp Dewpoint Dewpoint Depression Visibility Wind Speed Wind Dir Waves Ship Positions

Tensaw

Owner: Enterprise Marine Services, LLC, San Antonio, TX. More information available from US FCC via Universal Licensing System and Coast Guard Vessel Documentation Center.

Last reported at 2018-Jul-13 04:19 UTC. Time now 2018-Jul-20 06:22 UTC.
Position N 29°35' W 090°37'.

Length 20 m; draft 2.7 m.

Type: . MMSI: 367127050.

Date/timePositionNaut miles runAvg speedWind from/ knotsBaromVisibWave heightAir tempDewpointWater temp
2018-Jul-13 04:19N 29°35' W 090°37'2 5.7
2018-Jul-13 03:57N 29°36' W 090°39'1 1.9
2018-Jul-13 03:30N 29°36' W 090°40'0 0.6
2018-Jul-13 02:57N 29°36' W 090°40'0 0.0
2018-Jul-13 02:25N 29°36' W 090°40'0 0.0
2018-Jul-13 02:00N 29°36' W 090°40'0 0.7
2018-Jul-13 01:30N 29°36' W 090°40'1 1.1
2018-Jul-13 01:00N 29°36' W 090°41'2 3.2
2018-Jul-13 00:30N 29°36' W 090°43'2 3.4
2018-Jul-13 00:00N 29°34' W 090°43'0 0.2
2018-Jul-12 23:30N 29°34' W 090°43'2 4.7
2018-Jul-12 23:00N 29°33' W 090°45'3 5.7
2018-Jul-12 22:30N 29°32' W 090°48'  
2018-Jul-09 21:55N 29°36' W 090°58'2 4.9
2018-Jul-09 21:26N 29°34' W 090°57'3 4.8
2018-Jul-09 20:52N 29°33' W 090°54'2 3.6
2018-Jul-09 20:25N 29°32' W 090°52'2 5.3
2018-Jul-09 20:00N 29°32' W 090°50'3 5.3
2018-Jul-09 19:30N 29°32' W 090°47'2 4.8
2018-Jul-09 19:00N 29°34' W 090°45'2 4.1
2018-Jul-09 18:30N 29°35' W 090°43'2 3.8
2018-Jul-09 18:01N 29°37' W 090°42'1 2.1
2018-Jul-09 17:30N 29°36' W 090°41'2 3.3
2018-Jul-09 17:00N 29°36' W 090°39'2 4.8
2018-Jul-09 16:30N 29°35' W 090°36'2 4.7
2018-Jul-09 16:00N 29°34' W 090°34'3 5.1
2018-Jul-09 15:28N 29°34' W 090°31'  

Dump ship's entire track history